createdAt,value
2022-12-01T00:00:51.878Z,8.52
2022-12-01T00:03:18.886Z,8.49
2022-12-01T00:05:45.861Z,8.36
2022-12-01T00:08:12.716Z,8.44
2022-12-01T00:10:39.650Z,8.29
2022-12-01T00:13:06.539Z,8.42
2022-12-01T00:15:36.193Z,8.40
2022-12-01T00:18:05.480Z,8.36
2022-12-01T00:20:35.575Z,8.19
2022-12-01T00:23:02.445Z,8.31
2022-12-01T00:25:29.558Z,8.29
2022-12-01T00:27:57.410Z,8.27
2022-12-01T00:30:24.273Z,8.24
2022-12-01T00:32:51.162Z,8.21
2022-12-01T00:35:18.119Z,8.20
2022-12-01T00:37:45.033Z,8.18
2022-12-01T00:40:12.418Z,8.17
2022-12-01T00:42:39.259Z,8.11
2022-12-01T00:45:06.589Z,8.14
2022-12-01T00:47:33.541Z,8.12
2022-12-01T00:50:00.637Z,8.10
2022-12-01T00:52:27.669Z,8.08
2022-12-01T00:54:54.575Z,8.05
2022-12-01T00:57:21.466Z,8.04
2022-12-01T00:59:49.340Z,8.00
2022-12-01T01:02:16.455Z,7.99
2022-12-01T01:04:43.437Z,7.99
2022-12-01T01:07:10.288Z,8.00
2022-12-01T01:09:37.213Z,8.02
2022-12-01T01:12:04.223Z,8.02
2022-12-01T01:14:31.107Z,8.03
2022-12-01T01:16:58.063Z,8.03
2022-12-01T01:19:25.063Z,8.05
2022-12-01T01:21:51.931Z,8.05
2022-12-01T01:24:18.871Z,8.03
2022-12-01T01:26:45.777Z,8.02
2022-12-01T01:29:12.693Z,7.92
2022-12-01T01:31:39.856Z,7.97
2022-12-01T01:34:07.183Z,7.95
2022-12-01T01:36:34.097Z,7.93
2022-12-01T01:39:01.102Z,7.89
2022-12-01T01:41:28.927Z,7.90
2022-12-01T01:43:59.595Z,7.89
2022-12-01T01:46:30.849Z,7.70
2022-12-01T01:49:02.515Z,7.69
2022-12-01T01:51:49.428Z,7.81
2022-12-01T01:54:25.140Z,7.51
2022-12-01T01:56:52.184Z,7.52
2022-12-01T01:59:24.387Z,7.66
2022-12-01T02:01:56.592Z,7.67
2022-12-01T02:04:23.919Z,7.67
2022-12-01T02:06:51.922Z,7.65
2022-12-01T02:09:18.939Z,7.63
2022-12-01T02:12:22.378Z,7.80
2022-12-01T02:15:08.101Z,7.74
2022-12-01T02:17:53.784Z,7.80
2022-12-01T02:20:42.538Z,7.78
2022-12-01T02:23:33.902Z,7.75
2022-12-01T02:26:30.885Z,7.53
2022-12-01T02:29:09.718Z,7.47
2022-12-01T02:31:59.463Z,7.46
2022-12-01T02:34:31.264Z,7.44
2022-12-01T02:37:08.896Z,7.47
2022-12-01T02:39:37.452Z,7.45
2022-12-01T02:42:07.903Z,7.41
2022-12-01T02:44:36.568Z,7.43
2022-12-01T02:47:05.500Z,7.20
2022-12-01T02:49:36.561Z,7.41
2022-12-01T02:52:04.949Z,7.40
2022-12-01T02:54:31.887Z,7.40
2022-12-01T02:56:58.779Z,7.38
2022-12-01T02:59:25.681Z,7.43
2022-12-01T03:02:15.534Z,7.45
2022-12-01T03:05:00.367Z,7.44
2022-12-01T03:07:48.998Z,7.45
2022-12-01T03:10:28.875Z,7.51
2022-12-01T03:13:08.946Z,7.47
2022-12-01T03:16:09.943Z,7.86
2022-12-01T03:18:39.967Z,8.05
2022-12-01T03:21:21.429Z,8.23
2022-12-01T03:23:53.259Z,8.16
2022-12-01T03:26:21.083Z,8.60
2022-12-01T03:28:51.520Z,8.79
2022-12-01T03:31:21.020Z,8.96
2022-12-01T03:33:50.686Z,9.13
2022-12-01T03:36:39.578Z,9.32
2022-12-01T03:39:12.734Z,9.44
2022-12-01T03:42:12.995Z,9.59
2022-12-01T03:44:52.043Z,9.61
2022-12-01T03:47:21.215Z,9.87
2022-12-01T03:49:49.422Z,10.04
2022-12-01T03:52:53.891Z,10.23
2022-12-01T03:55:28.882Z,10.33
2022-12-01T03:58:00.270Z,10.56
2022-12-01T04:00:27.220Z,10.73
2022-12-01T04:02:58.740Z,10.86
2022-12-01T04:05:26.040Z,11.02
2022-12-01T04:07:53.397Z,11.11
2022-12-01T04:10:20.430Z,11.24
2022-12-01T04:12:47.454Z,11.39
2022-12-01T04:15:14.569Z,11.52
2022-12-01T04:17:45.174Z,11.67
2022-12-01T04:20:13.692Z,11.73
2022-12-01T04:22:40.575Z,11.93
2022-12-01T04:25:07.869Z,11.92
2022-12-01T04:27:34.863Z,12.22
2022-12-01T04:30:01.789Z,12.35
2022-12-01T04:32:28.744Z,12.47
2022-12-01T04:34:55.648Z,12.56
2022-12-01T04:37:22.504Z,12.65
2022-12-01T04:39:49.694Z,12.74
2022-12-01T04:42:16.815Z,12.86
2022-12-01T04:44:43.816Z,12.96
2022-12-01T04:47:10.722Z,13.06
2022-12-01T04:49:37.671Z,13.15
2022-12-01T04:52:05.069Z,13.26
2022-12-01T04:54:32.120Z,13.43
2022-12-01T04:56:59.391Z,13.71
2022-12-01T04:59:26.620Z,14.02
2022-12-01T05:01:53.820Z,14.22
2022-12-01T05:04:20.988Z,14.67
2022-12-01T05:06:48.099Z,14.99
2022-12-01T05:09:17.395Z,15.30
2022-12-01T05:11:44.971Z,15.53
2022-12-01T05:14:11.925Z,15.76
2022-12-01T05:16:39.171Z,15.97
2022-12-01T05:19:24.917Z,16.17
2022-12-01T05:21:52.117Z,16.36
2022-12-01T05:24:19.789Z,16.56
2022-12-01T05:26:49.638Z,16.70
2022-12-01T05:29:16.859Z,16.88
2022-12-01T05:31:45.365Z,16.97
2022-12-01T05:34:12.514Z,17.34
2022-12-01T05:36:39.524Z,17.45
2022-12-01T05:39:06.605Z,17.58
2022-12-01T05:41:33.709Z,17.81
2022-12-01T05:44:00.970Z,18.01
2022-12-01T05:46:28.080Z,18.22
2022-12-01T05:48:55.159Z,18.37
2022-12-01T05:51:22.150Z,18.57
2022-12-01T05:53:49.179Z,18.77
2022-12-01T05:56:16.244Z,18.99
2022-12-01T05:58:43.512Z,19.16
2022-12-01T06:01:10.976Z,19.24
2022-12-01T06:03:38.067Z,19.27
2022-12-01T06:06:05.301Z,19.38
2022-12-01T06:08:32.366Z,19.54
2022-12-01T06:10:59.354Z,19.71
2022-12-01T06:13:26.312Z,19.85
2022-12-01T06:16:00.309Z,19.97
2022-12-01T06:18:27.708Z,19.98
2022-12-01T06:20:54.781Z,19.97
2022-12-01T06:23:24.307Z,20.07
2022-12-01T06:25:54.740Z,20.21
2022-12-01T06:28:21.859Z,20.37
2022-12-01T06:30:48.877Z,20.52
2022-12-01T06:33:16.015Z,20.63
2022-12-01T06:35:43.205Z,20.53
2022-12-01T06:38:10.159Z,20.52
2022-12-01T06:40:37.269Z,20.41
2022-12-01T06:43:04.347Z,20.56
2022-12-01T06:45:31.570Z,20.70
2022-12-01T06:47:58.937Z,20.75
2022-12-01T06:50:26.202Z,20.96
2022-12-01T06:52:53.893Z,20.93
2022-12-01T06:55:20.979Z,20.73
2022-12-01T06:57:48.274Z,20.84
2022-12-01T07:00:16.303Z,20.86
2022-12-01T07:02:43.691Z,21.08
2022-12-01T07:05:10.769Z,21.14
2022-12-01T07:07:38.908Z,20.88
2022-12-01T07:10:06.615Z,20.81
2022-12-01T07:12:33.744Z,20.93
2022-12-01T07:15:02.028Z,21.15
2022-12-01T07:17:29.835Z,21.25
2022-12-01T07:19:57.317Z,21.12
2022-12-01T07:22:29.479Z,20.96
2022-12-01T07:24:58.077Z,21.13
2022-12-01T07:27:25.007Z,21.30
2022-12-01T07:29:52.060Z,21.44
2022-12-01T07:32:19.690Z,21.62
2022-12-01T07:34:46.627Z,21.70
2022-12-01T07:37:13.536Z,21.75
2022-12-01T07:39:40.602Z,21.79
2022-12-01T07:42:08.565Z,21.83
2022-12-01T07:44:35.524Z,21.93
2022-12-01T07:47:02.489Z,22.05
2022-12-01T07:49:29.496Z,22.16
2022-12-01T07:51:56.408Z,22.20
2022-12-01T07:54:23.477Z,22.20
2022-12-01T07:56:50.443Z,22.19
2022-12-01T07:59:17.340Z,22.36
2022-12-01T08:01:46.081Z,22.48
2022-12-01T08:04:13.118Z,22.30
2022-12-01T08:06:40.062Z,22.56
2022-12-01T08:09:07.040Z,22.53
2022-12-01T08:11:33.997Z,22.61
2022-12-01T08:14:00.936Z,22.68
2022-12-01T08:16:27.995Z,22.80
2022-12-01T08:18:54.990Z,22.79
2022-12-01T08:21:23.001Z,22.84
2022-12-01T08:23:55.855Z,22.81
2022-12-01T08:26:23.540Z,22.97
2022-12-01T08:28:50.542Z,23.10
2022-12-01T08:31:20.117Z,23.19
2022-12-01T08:33:47.612Z,22.98
2022-12-01T08:36:15.398Z,23.06
2022-12-01T08:38:45.867Z,23.28
2022-12-01T08:41:13.287Z,23.37
2022-12-01T08:43:57.077Z,23.43
2022-12-01T08:46:27.008Z,23.37
2022-12-01T08:48:55.199Z,23.23
2022-12-01T08:51:22.234Z,23.41
2022-12-01T08:53:49.713Z,23.50
2022-12-01T08:56:20.450Z,23.53
2022-12-01T08:58:47.548Z,23.42
2022-12-01T09:01:15.584Z,23.45
2022-12-01T09:03:42.762Z,23.82
2022-12-01T09:06:22.994Z,23.57
2022-12-01T09:08:49.986Z,23.72
2022-12-01T09:11:18.506Z,23.62
2022-12-01T09:13:51.315Z,23.78
2022-12-01T09:16:21.418Z,23.89
2022-12-01T09:18:48.696Z,23.82
2022-12-01T09:21:19.327Z,23.92
2022-12-01T09:23:46.478Z,23.93
2022-12-01T09:26:14.104Z,23.91
2022-12-01T09:28:41.211Z,23.90
2022-12-01T09:31:09.846Z,23.72
2022-12-01T09:33:37.021Z,23.76
2022-12-01T09:36:04.723Z,23.87
2022-12-01T09:38:32.809Z,23.84
2022-12-01T09:41:00.801Z,23.78
2022-12-01T09:43:33.251Z,23.78
2022-12-01T09:46:02.482Z,23.70
2022-12-01T09:48:31.233Z,23.62
2022-12-01T09:50:58.246Z,23.59
2022-12-01T09:53:26.771Z,23.56
2022-12-01T09:55:55.131Z,23.53
2022-12-01T09:58:27.350Z,23.55
2022-12-01T10:00:54.483Z,23.51
2022-12-01T10:03:45.722Z,23.34
2022-12-01T10:06:32.100Z,23.15
2022-12-01T10:09:25.748Z,22.98
2022-12-01T10:11:55.281Z,22.79
2022-12-01T10:14:22.558Z,22.75
2022-12-01T10:16:58.540Z,22.76
2022-12-01T10:19:33.128Z,22.75
2022-12-01T10:22:06.258Z,22.76
2022-12-01T10:24:53.878Z,22.79
2022-12-01T10:27:52.960Z,22.77
2022-12-01T10:30:21.307Z,22.73
2022-12-01T10:32:51.994Z,22.73
2022-12-01T10:35:24.659Z,22.51
2022-12-01T10:38:00.813Z,22.00
2022-12-01T10:40:27.990Z,22.14
2022-12-01T10:42:55.123Z,22.14
2022-12-01T10:45:26.122Z,22.16
2022-12-01T10:48:20.056Z,22.20
2022-12-01T10:50:50.196Z,22.19
2022-12-01T10:53:23.086Z,22.23
2022-12-01T10:56:11.891Z,22.24
2022-12-01T10:58:58.906Z,22.25
2022-12-01T11:01:32.155Z,22.04
2022-12-01T11:04:31.551Z,22.26
2022-12-01T11:06:58.725Z,22.24
2022-12-01T11:09:29.720Z,22.26
2022-12-01T11:12:03.712Z,22.27
2022-12-01T11:14:36.591Z,22.25
2022-12-01T11:17:25.208Z,22.26
2022-12-01T11:19:52.691Z,22.24
2022-12-01T11:22:27.500Z,22.29
2022-12-01T11:24:54.376Z,22.28
2022-12-01T11:27:45.310Z,22.23
2022-12-01T11:30:41.816Z,22.24
2022-12-01T11:33:10.612Z,22.15
2022-12-01T11:35:40.110Z,22.16
2022-12-01T11:38:28.678Z,21.98
2022-12-01T11:40:57.867Z,22.17
2022-12-01T11:43:36.772Z,22.18
2022-12-01T11:46:08.195Z,22.08
2022-12-01T11:48:36.324Z,22.10
2022-12-01T11:51:27.184Z,22.24
2022-12-01T11:54:21.716Z,22.23
2022-12-01T11:57:17.418Z,22.22
2022-12-01T11:59:38.923Z,22.20
2022-12-01T12:02:09.260Z,22.18
2022-12-01T12:05:00.682Z,22.16
2022-12-01T12:07:53.498Z,22.16
2022-12-01T12:10:29.349Z,22.14
2022-12-01T12:13:08.187Z,22.16
2022-12-01T12:15:56.193Z,22.09
2022-12-01T12:18:51.081Z,22.13
2022-12-01T12:21:17.947Z,22.05
2022-12-01T12:23:50.850Z,22.10
2022-12-01T12:26:30.005Z,22.00
2022-12-01T12:29:27.036Z,21.73
2022-12-01T12:32:06.863Z,21.87
2022-12-01T12:34:58.257Z,21.86
2022-12-01T12:37:31.045Z,21.84
2022-12-01T12:40:12.995Z,21.86
2022-12-01T12:43:07.437Z,22.12
2022-12-01T12:45:54.666Z,21.97
2022-12-01T12:51:43.506Z,21.88
2022-12-01T12:54:12.959Z,21.81
2022-12-01T12:56:41.637Z,21.81
2022-12-01T12:59:31.936Z,21.83
2022-12-01T13:02:27.306Z,21.77
2022-12-01T13:05:03.129Z,21.76
2022-12-01T13:07:48.669Z,21.76
2022-12-01T13:10:26.794Z,21.82
2022-12-01T13:13:00.485Z,21.86
2022-12-01T13:15:27.524Z,21.80
2022-12-01T13:17:58.921Z,21.76
2022-12-01T13:20:27.778Z,21.90
2022-12-01T13:22:55.359Z,21.78
2022-12-01T13:25:32.818Z,22.02
2022-12-01T13:28:00.262Z,22.01
2022-12-01T13:30:27.200Z,21.99
2022-12-01T13:33:04.832Z,22.00
2022-12-01T13:35:38.324Z,22.00
2022-12-01T13:38:30.346Z,21.96
2022-12-01T13:41:18.723Z,21.97
2022-12-01T13:43:54.847Z,22.04
2022-12-01T13:46:32.298Z,22.01
2022-12-01T13:49:03.442Z,22.01
2022-12-01T13:52:16.117Z,22.05
2022-12-01T13:55:07.949Z,22.04
2022-12-01T13:57:38.622Z,22.03
2022-12-01T14:00:11.599Z,22.00
2022-12-01T14:02:41.799Z,22.00
2022-12-01T14:05:39.855Z,21.99
2022-12-01T14:08:25.619Z,21.99
2022-12-01T14:11:00.939Z,21.88
2022-12-01T14:13:28.044Z,21.58
2022-12-01T14:15:59.765Z,21.40
2022-12-01T14:18:33.187Z,21.53
2022-12-01T14:21:01.009Z,21.41
2022-12-01T14:23:30.657Z,21.62
2022-12-01T14:26:18.628Z,21.70
2022-12-01T14:29:00.914Z,21.72
2022-12-01T14:31:33.938Z,21.69
2022-12-01T14:34:14.436Z,21.67
2022-12-01T14:37:03.889Z,21.61
2022-12-01T14:39:45.487Z,21.45
2022-12-01T14:42:45.803Z,21.13
2022-12-01T14:45:15.277Z,21.09
2022-12-01T14:47:49.646Z,21.00
2022-12-01T14:50:30.388Z,20.87
2022-12-01T14:53:13.975Z,20.74
2022-12-01T14:55:43.023Z,20.63
2022-12-01T14:58:21.893Z,20.29
2022-12-01T15:01:03.072Z,20.33
2022-12-01T15:03:34.176Z,20.17
2022-12-01T15:06:01.384Z,20.29
2022-12-01T15:09:03.933Z,19.99
2022-12-01T15:11:25.992Z,19.63
2022-12-01T15:13:56.128Z,19.66
2022-12-01T15:16:25.466Z,19.55
2022-12-01T15:18:52.714Z,19.42
2022-12-01T15:21:27.641Z,19.43
2022-12-01T15:24:05.652Z,19.32
2022-12-01T15:26:52.091Z,19.21
2022-12-01T15:29:29.840Z,19.11
2022-12-01T15:32:01.661Z,19.01
2022-12-01T15:34:30.684Z,18.97
2022-12-01T15:36:58.028Z,18.89
2022-12-01T15:39:37.737Z,18.53
2022-12-01T15:42:04.802Z,18.64
2022-12-01T15:44:36.023Z,18.51
2022-12-01T15:47:36.145Z,18.39
2022-12-01T15:50:04.182Z,18.25
2022-12-01T15:52:31.297Z,18.11
2022-12-01T15:55:01.342Z,17.94
2022-12-01T15:57:28.304Z,17.84
2022-12-01T15:59:56.482Z,17.54
2022-12-01T16:02:30.374Z,17.59
2022-12-01T16:05:01.698Z,17.46
2022-12-01T16:08:10.997Z,17.34
2022-12-01T16:10:36.423Z,17.21
2022-12-01T16:13:37.576Z,17.08
2022-12-01T16:16:39.452Z,16.93
2022-12-01T16:19:09.311Z,16.78
2022-12-01T16:22:10.190Z,16.72
2022-12-01T16:24:56.537Z,16.60
2022-12-01T16:27:28.013Z,16.51
2022-12-01T16:30:02.708Z,16.43
2022-12-01T16:32:36.308Z,16.32
2022-12-01T16:35:04.818Z,16.19
2022-12-01T16:37:31.693Z,16.08
2022-12-01T16:39:58.824Z,15.97
2022-12-01T16:42:25.769Z,15.91
2022-12-01T16:44:53.107Z,15.89
2022-12-01T16:47:24.844Z,15.77
2022-12-01T16:49:52.250Z,15.70
2022-12-01T16:52:43.557Z,15.61
2022-12-01T16:55:31.467Z,15.55
2022-12-01T16:57:58.405Z,15.49
2022-12-01T17:00:25.658Z,15.51
2022-12-01T17:02:52.945Z,15.44
2022-12-01T17:05:19.920Z,15.24
2022-12-01T17:07:46.852Z,15.38
2022-12-01T17:10:13.916Z,15.17
2022-12-01T17:12:40.994Z,15.22
2022-12-01T17:15:08.378Z,15.17
2022-12-01T17:17:35.458Z,15.09
2022-12-01T17:20:03.176Z,14.99
2022-12-01T17:22:30.410Z,14.93
2022-12-01T17:24:57.584Z,14.84
2022-12-01T17:27:25.791Z,14.76
2022-12-01T17:29:52.887Z,14.68
2022-12-01T17:32:19.800Z,14.60
2022-12-01T17:34:46.675Z,14.54
2022-12-01T17:37:17.646Z,14.51
2022-12-01T17:39:47.586Z,14.23
2022-12-01T17:42:14.426Z,14.38
2022-12-01T17:44:41.297Z,14.36
2022-12-01T17:47:08.196Z,14.29
2022-12-01T17:49:36.445Z,14.21
2022-12-01T17:52:04.674Z,14.13
2022-12-01T17:54:31.675Z,14.05
2022-12-01T17:56:58.722Z,13.89
2022-12-01T17:59:25.700Z,13.81
2022-12-01T18:01:52.813Z,13.73
2022-12-01T18:04:19.682Z,13.67
2022-12-01T18:06:50.787Z,13.59
2022-12-01T18:09:20.885Z,13.53
2022-12-01T18:11:47.795Z,13.45
2022-12-01T18:14:17.809Z,13.30
2022-12-01T18:16:44.845Z,13.42
2022-12-01T18:19:11.809Z,13.37
2022-12-01T18:21:38.722Z,13.33
2022-12-01T18:24:06.306Z,13.27
2022-12-01T18:26:33.471Z,13.03
2022-12-01T18:29:02.523Z,13.14
2022-12-01T18:31:29.754Z,13.14
2022-12-01T18:34:02.577Z,13.12
2022-12-01T18:36:30.030Z,13.09
2022-12-01T18:38:57.761Z,13.05
2022-12-01T18:41:24.687Z,12.99
2022-12-01T18:43:51.619Z,12.92
2022-12-01T18:46:19.145Z,12.51
2022-12-01T18:48:47.163Z,12.55
2022-12-01T18:51:14.167Z,12.50
2022-12-01T18:53:41.086Z,12.37
2022-12-01T18:56:11.609Z,12.39
2022-12-01T18:58:39.272Z,12.44
2022-12-01T19:01:25.892Z,12.42
2022-12-01T19:03:54.775Z,12.36
2022-12-01T19:06:21.712Z,12.30
2022-12-01T19:08:48.700Z,12.25
2022-12-01T19:11:15.653Z,12.32
2022-12-01T19:13:42.504Z,12.32
2022-12-01T19:16:12.128Z,12.30
2022-12-01T19:18:39.375Z,12.26
2022-12-01T19:21:07.242Z,12.24
2022-12-01T19:23:34.459Z,12.19
2022-12-01T19:26:08.312Z,12.13
2022-12-01T19:28:35.575Z,12.09
2022-12-01T19:31:10.081Z,12.05
2022-12-01T19:33:37.205Z,12.01
2022-12-01T19:36:15.053Z,11.97
2022-12-01T19:38:42.176Z,11.92
2022-12-01T19:41:09.334Z,11.69
2022-12-01T19:43:36.583Z,11.83
2022-12-01T19:46:14.967Z,11.79
2022-12-01T19:48:42.460Z,11.74
2022-12-01T19:51:19.142Z,11.66
2022-12-01T19:53:46.342Z,11.61
2022-12-01T19:56:13.256Z,11.56
2022-12-01T19:58:40.286Z,11.49
2022-12-01T20:01:09.358Z,11.49
2022-12-01T20:03:36.439Z,11.48
2022-12-01T20:06:23.421Z,11.43
2022-12-01T20:08:50.590Z,11.41
2022-12-01T20:11:17.676Z,11.42
2022-12-01T20:13:45.325Z,11.37
2022-12-01T20:16:21.649Z,11.29
2022-12-01T20:18:48.741Z,11.25
2022-12-01T20:21:21.145Z,11.20
2022-12-01T20:23:54.395Z,11.11
2022-12-01T20:26:24.911Z,10.97
2022-12-01T20:28:55.041Z,11.01
2022-12-01T20:31:24.568Z,10.99
2022-12-01T20:33:52.654Z,10.97
2022-12-01T20:36:19.679Z,10.99
2022-12-01T20:38:46.706Z,10.92
2022-12-01T20:41:13.816Z,10.65
2022-12-01T20:43:40.905Z,10.81
2022-12-01T20:46:07.959Z,10.76
2022-12-01T20:48:35.215Z,10.72
2022-12-01T20:51:03.069Z,10.68
2022-12-01T20:53:30.295Z,10.61
2022-12-01T20:55:57.293Z,10.61
2022-12-01T20:58:24.206Z,10.58
2022-12-01T21:00:51.147Z,10.56
2022-12-01T21:03:18.036Z,10.53
2022-12-01T21:05:44.921Z,10.53
2022-12-01T21:08:12.901Z,10.48
2022-12-01T21:10:41.415Z,10.44
2022-12-01T21:13:35.695Z,10.41
2022-12-01T21:16:06.982Z,10.34
2022-12-01T21:18:55.764Z,10.34
2022-12-01T21:21:29.982Z,10.28
2022-12-01T21:24:13.731Z,10.24
2022-12-01T21:26:42.286Z,10.20
2022-12-01T21:29:28.896Z,10.17
2022-12-01T21:31:58.834Z,10.15
2022-12-01T21:34:27.096Z,10.09
2022-12-01T21:37:00.095Z,10.14
2022-12-01T21:39:28.426Z,10.11
2022-12-01T21:41:56.639Z,10.12
2022-12-01T21:44:25.431Z,10.12
2022-12-01T21:46:55.444Z,10.10
2022-12-01T21:49:35.588Z,10.08
2022-12-01T21:52:03.576Z,10.09
2022-12-01T21:54:30.546Z,10.07
2022-12-01T21:56:57.696Z,10.08
2022-12-01T21:59:24.730Z,10.07
2022-12-01T22:01:55.555Z,10.06
2022-12-01T22:04:29.577Z,10.01
2022-12-01T22:06:57.112Z,10.01
2022-12-01T22:09:27.581Z,9.99
2022-12-01T22:12:37.165Z,9.96
2022-12-01T22:15:04.389Z,9.92
2022-12-01T22:17:31.237Z,9.74
2022-12-01T22:20:00.557Z,9.85
2022-12-01T22:22:28.876Z,9.84
2022-12-01T22:25:07.217Z,9.82
2022-12-01T22:27:40.132Z,9.79
2022-12-01T22:30:07.415Z,9.74
2022-12-01T22:32:43.107Z,9.72
2022-12-01T22:35:26.167Z,9.71
2022-12-01T22:38:11.116Z,9.67
2022-12-01T22:40:39.193Z,9.62
2022-12-01T22:43:19.678Z,9.59
2022-12-01T22:46:07.709Z,9.55
2022-12-01T22:48:44.613Z,9.53
2022-12-01T22:51:14.334Z,9.49
2022-12-01T22:53:41.640Z,9.46
2022-12-01T22:56:26.656Z,9.46
2022-12-01T22:58:53.651Z,9.40
2022-12-01T23:01:30.065Z,9.34
2022-12-01T23:04:26.403Z,9.29
2022-12-01T23:06:57.643Z,9.25
2022-12-01T23:09:28.326Z,9.22
2022-12-01T23:12:01.923Z,8.96
2022-12-01T23:14:29.152Z,9.18
2022-12-01T23:17:07.380Z,8.96
2022-12-01T23:19:34.640Z,9.15
2022-12-01T23:22:01.597Z,9.11
2022-12-01T23:24:33.464Z,8.93
2022-12-01T23:27:00.706Z,9.11
2022-12-01T23:29:27.599Z,9.12
2022-12-01T23:31:54.509Z,9.16
2022-12-01T23:34:21.461Z,9.16
2022-12-01T23:36:48.967Z,8.95
2022-12-01T23:39:16.425Z,9.13
2022-12-01T23:41:47.630Z,9.08
2022-12-01T23:44:21.183Z,9.05
2022-12-01T23:46:49.248Z,8.99
2022-12-01T23:49:18.972Z,9.00
2022-12-01T23:51:48.053Z,8.98
2022-12-01T23:54:22.096Z,8.95
2022-12-01T23:56:55.031Z,8.91
2022-12-01T23:59:22.092Z,8.89
